Řízení letového provozu České republiky  
Aktualizace dat:  21.09.2021 05:50:28 UTC English version
   METEO Zobrazení stránky:  21.09.2021 05:52:05 UTC  
vysvětlivky
METAR EDDB 210520Z 34003KT 9999 SCT035 12/10 Q1026 NOSIG=
METAR EDDC 210520Z 23003KT CAVOK 10/08 Q1026 NOSIG=
METAR EDDE 210520Z 22008KT CAVOK 06/05 Q1027 NOSIG=
METAR EDDF 210520Z 02010KT 9999 FEW047 10/04 Q1027 NOSIG=
METAR EDDM 210520Z VRB01KT 9999 FEW030 OVC047 10/08 Q1025 NOSIG=
METAR EDDN 210520Z 35003KT 9999 OVC048 09/06 Q1026 NOSIG=
METAR EDDP 210520Z 28004KT 9999 FEW046 10/09 Q1026 NOSIG=
METAR EDQM 210520Z 32003KT 9999 OVC044 07/05 Q1026=
METAR EPBY 210530Z 26003KT CAVOK 04/03 Q1024=
METAR EPGD 210530Z 29003KT 9999 SCT043 06/04 Q1023=
METAR EPKK 210530Z 20003KT 6000 SCT043 06/05 Q1024=
METAR EPKT 210530Z VRB01KT 9999 SCT038 BKN043 04/03 Q1024=
METAR EPLL 210530Z 26004KT 6000 NSC 03/03 Q1023=
METAR EPPO 210530Z 30003KT CAVOK 08/07 Q1025=
METAR EPRZ 210530Z 27011KT 9999 FEW028 BKN040 07/06 Q1022=
METAR EPWA 210530Z 29008KT 9999 FEW005 05/05 Q1022 NOSIG=
METAR EPWR 210530Z VRB01KT CAVOK 07/06 Q1025=
METAR LHBP 210530Z 03004KT CAVOK 07/05 Q1024 NOSIG=
METAR LHSM 210515Z AUTO 33003KT 9000 NSC 08/07 Q1024 NOSIG=
METAR LKBC 210530Z AUTO /////KT ///V/// 9999 OVC057 08/06 Q1025=
METAR LKCV 210530Z 24002KT CAVOK 10/09 Q1026 NOSIG RMK BLU BLU=
METAR LKKB 210530Z 32004KT CAVOK 10/08 Q1026 NOSIG RMK BLU BLU=
METAR LKKU 210500Z VRB02KT CAVOK 06/05 Q1025=
METAR LKKV 210500Z 00000KT 9999 FEW035 OVC043 06/05 Q1026 RMK REG QNH 1022=
METAR LKLN 210530Z AUTO 24002KT 9999 OVC059 08/06 Q1026=
METAR LKMT 210530Z 19001KT 9000 VCFG NSC 05/05 Q1025 NOSIG RMK REG QNH 1022=
METAR LKNA 210530Z VRB02KT CAVOK 09/06 Q1025 NOSIG RMK BLU BLU=
METAR LKPD 210530Z VRB01KT CAVOK 10/08 Q1025 RMK BLACK=
METAR LKPJ 210530Z AUTO 00000KT 9999 FEW063/// 07/05 Q1025=
METAR LKPR 210530Z 32002KT CAVOK 09/07 Q1026 NOSIG RMK REG QNH 1022=
METAR LKTB 210530Z 05003KT CAVOK 10/06 Q1025 NOSIG RMK REG QNH 1022=
METAR LKVO NIL
METAR LOWI 210520Z 09003KT 9999 SCT015 BKN040 11/09 Q1025 NOSIG=
METAR LOWL 210520Z VRB02KT 9999 OVC060 10/08 Q1025 NOSIG=
METAR LOWS 210520Z 16003KT 140V200 9999 FEW008 BKN050 09/09 Q1025 NOSIG=
METAR LOWW 210520Z 34004KT CAVOK 10/08 Q1025 NOSIG=
METAR LZIB 210530Z 36005KT CAVOK 11/05 Q1024 NOSIG=
METAR LZKZ 210530Z 26003KT 220V320 CAVOK 07/04 Q1024 NOSIG=
METAR LZMC NIL
METAR LZPP 210530Z 36007KT CAVOK 06/05 Q1024=
METAR LZSL NIL
METAR LZTT 210530Z VRB02KT 9999 FEW010 04/03 Q1023 NOSIG=
METAR LZZI 210530Z VRB01KT 9999 BKN040 06/05 Q1025=